createdAt,value
2022-09-28T00:02:06.216Z,40.20
2022-09-28T00:04:36.202Z,41.88
2022-09-28T00:07:05.344Z,40.22
2022-09-28T00:09:34.734Z,41.53
2022-09-28T00:12:03.643Z,42.45
2022-09-28T00:14:33.427Z,42.13
2022-09-28T00:17:02.635Z,43.20
2022-09-28T00:19:32.026Z,40.83
2022-09-28T00:22:00.955Z,40.65
2022-09-28T00:24:31.437Z,42.38
2022-09-28T00:27:02.680Z,42.28
2022-09-28T00:29:38.309Z,44.00
2022-09-28T00:32:15.099Z,43.47
2022-09-28T00:34:49.893Z,41.95
2022-09-28T00:37:21.243Z,44.63
2022-09-28T00:39:50.562Z,43.53
2022-09-28T00:42:27.784Z,44.30
2022-09-28T00:44:58.648Z,46.70
2022-09-28T00:47:39.938Z,42.85
2022-09-28T00:50:27.362Z,46.53
2022-09-28T00:53:11.070Z,44.92
2022-09-28T00:55:48.090Z,43.80
2022-09-28T00:58:26.624Z,42.63
2022-09-28T01:01:02.295Z,46.72
2022-09-28T01:03:33.123Z,46.33
2022-09-28T01:06:08.063Z,43.90
2022-09-28T01:08:40.129Z,45.00
2022-09-28T01:11:11.087Z,47.05
2022-09-28T01:13:43.157Z,45.55
2022-09-28T01:16:18.863Z,46.22
2022-09-28T01:19:22.607Z,46.47
2022-09-28T01:22:06.158Z,43.15
2022-09-28T01:24:50.850Z,42.80
2022-09-28T01:27:33.910Z,43.95
2022-09-28T01:30:16.716Z,46.72
2022-09-28T01:33:09.255Z,47.67
2022-09-28T01:36:00.445Z,44.85
2022-09-28T01:38:40.772Z,44.55
2022-09-28T01:41:13.641Z,43.45
2022-09-28T01:43:50.210Z,45.53
2022-09-28T01:46:27.578Z,46.45
2022-09-28T01:49:00.221Z,44.40
2022-09-28T01:51:48.627Z,42.95
2022-09-28T01:54:37.806Z,44.75
2022-09-28T01:57:17.969Z,46.72
2022-09-28T02:00:09.281Z,43.38
2022-09-28T02:02:46.920Z,45.30
2022-09-28T02:05:34.230Z,48.33
2022-09-28T02:08:09.538Z,53.10
2022-09-28T02:10:58.803Z,52.80
2022-09-28T02:13:35.456Z,53.30
2022-09-28T02:16:25.974Z,55.83
2022-09-28T02:18:56.316Z,52.22
2022-09-28T02:21:49.913Z,55.00
2022-09-28T02:24:28.655Z,54.75
2022-09-28T02:27:05.489Z,53.58
2022-09-28T02:29:37.257Z,54.15
2022-09-28T02:32:07.395Z,56.78
2022-09-28T02:34:37.509Z,56.88
2022-09-28T02:37:07.790Z,50.08
2022-09-28T02:39:37.554Z,55.05
2022-09-28T02:42:19.290Z,57.65
2022-09-28T02:44:59.355Z,52.30
2022-09-28T02:47:50.709Z,49.03
2022-09-28T02:50:46.304Z,49.60
2022-09-28T02:53:33.331Z,50.28
2022-09-28T02:56:50.489Z,49.80
2022-09-28T02:59:20.158Z,50.30
2022-09-28T03:01:59.303Z,49.08
2022-09-28T03:04:41.538Z,50.35
2022-09-28T03:07:26.189Z,46.88
2022-09-28T03:10:10.477Z,47.92
2022-09-28T03:12:41.190Z,49.35
2022-09-28T03:15:35.259Z,45.47
2022-09-28T03:18:06.124Z,40.05
2022-09-28T03:20:36.268Z,38.55
2022-09-28T03:23:23.926Z,38.95
2022-09-28T03:25:54.991Z,35.47
2022-09-28T03:28:55.816Z,37.08
2022-09-28T03:31:27.743Z,37.50
2022-09-28T03:33:57.690Z,36.13
2022-09-28T03:36:27.373Z,36.38
2022-09-28T03:38:57.590Z,34.22
2022-09-28T03:41:29.037Z,37.88
2022-09-28T03:43:59.047Z,34.17
2022-09-28T03:46:30.847Z,37.53
2022-09-28T03:49:06.860Z,39.05
2022-09-28T03:51:36.913Z,33.42
2022-09-28T03:54:07.298Z,33.95
2022-09-28T03:56:37.284Z,36.08
2022-09-28T03:59:07.658Z,37.10
2022-09-28T04:01:38.709Z,35.53
2022-09-28T04:04:09.113Z,36.50
2022-09-28T04:06:39.034Z,35.60
2022-09-28T04:09:09.242Z,38.08
2022-09-28T04:11:59.721Z,38.47
2022-09-28T04:14:29.123Z,38.17
2022-09-28T04:16:59.263Z,36.30
2022-09-28T04:19:30.645Z,37.70
2022-09-28T04:22:01.901Z,37.35
2022-09-28T04:24:32.250Z,38.83
2022-09-28T04:27:21.959Z,36.20
2022-09-28T04:29:51.762Z,36.05
2022-09-28T04:32:22.547Z,36.45
2022-09-28T04:34:53.022Z,36.13
2022-09-28T04:37:22.570Z,35.90
2022-09-28T04:39:52.768Z,40.50
2022-09-28T04:42:22.028Z,36.35
2022-09-28T04:44:52.640Z,39.80
2022-09-28T04:47:21.728Z,43.10
2022-09-28T04:50:09.533Z,43.78
2022-09-28T04:52:58.406Z,45.03
2022-09-28T04:55:33.447Z,42.63
2022-09-28T04:58:06.195Z,43.00
2022-09-28T05:00:36.492Z,41.88
2022-09-28T05:03:17.489Z,40.47
2022-09-28T05:06:17.001Z,41.85
2022-09-28T05:08:48.416Z,42.72
2022-09-28T05:11:21.106Z,40.92
2022-09-28T05:13:52.003Z,41.40
2022-09-28T05:16:21.800Z,45.85
2022-09-28T05:19:17.488Z,42.28
2022-09-28T05:21:48.020Z,44.83
2022-09-28T05:24:17.520Z,46.38
2022-09-28T05:26:52.025Z,48.83
2022-09-28T05:29:22.124Z,46.78
2022-09-28T05:32:10.056Z,42.15
2022-09-28T05:34:46.736Z,45.00
2022-09-28T05:37:21.643Z,41.33
2022-09-28T05:39:51.248Z,41.17
2022-09-28T05:42:20.246Z,37.05
2022-09-28T05:44:49.625Z,41.25
2022-09-28T05:47:20.551Z,41.25
2022-09-28T05:49:50.007Z,39.45
2022-09-28T05:52:19.214Z,39.03
2022-09-28T05:54:49.245Z,40.08
2022-09-28T05:57:18.583Z,35.55
2022-09-28T05:59:47.574Z,34.47
2022-09-28T06:02:17.153Z,37.13
2022-09-28T06:04:46.813Z,39.47
2022-09-28T06:07:15.813Z,39.35
2022-09-28T06:09:45.543Z,43.22
2022-09-28T06:12:23.642Z,39.70
2022-09-28T06:14:58.288Z,37.33
2022-09-28T06:17:28.270Z,40.50
2022-09-28T06:20:17.312Z,39.67
2022-09-28T06:22:58.480Z,44.33
2022-09-28T06:25:28.918Z,40.67
2022-09-28T06:28:04.074Z,40.42
2022-09-28T06:30:36.121Z,39.10
2022-09-28T06:33:08.310Z,39.75
2022-09-28T06:35:43.551Z,40.03
2022-09-28T06:38:13.017Z,37.08
2022-09-28T06:40:42.242Z,39.67
2022-09-28T06:43:16.098Z,35.97
2022-09-28T06:46:04.437Z,35.17
2022-09-28T06:48:54.095Z,36.20
2022-09-28T06:51:43.202Z,36.40
2022-09-28T06:54:26.793Z,36.97
2022-09-28T06:57:16.307Z,31.50
2022-09-28T06:59:45.948Z,30.75
2022-09-28T07:02:15.495Z,28.83
2022-09-28T07:04:57.192Z,30.13
2022-09-28T07:07:38.059Z,33.63
2022-09-28T07:10:25.157Z,34.85
2022-09-28T07:13:31.194Z,35.72
2022-09-28T07:16:08.135Z,36.10
2022-09-28T07:18:37.854Z,33.50
2022-09-28T07:21:11.620Z,45.05
2022-09-28T07:23:52.966Z,36.83
2022-09-28T07:26:27.127Z,40.15
2022-09-28T07:29:03.696Z,55.25
2022-09-28T07:31:43.270Z,40.10
2022-09-28T07:34:30.781Z,38.28
2022-09-28T07:37:14.513Z,45.53
2022-09-28T07:40:01.880Z,39.08
2022-09-28T07:42:33.589Z,41.10
2022-09-28T07:45:02.710Z,38.33
2022-09-28T07:47:35.093Z,40.72
2022-09-28T07:50:23.310Z,37.58
2022-09-28T07:53:01.468Z,40.50
2022-09-28T07:55:33.494Z,39.03
2022-09-28T07:58:41.366Z,40.00
2022-09-28T08:01:28.770Z,41.40
2022-09-28T08:03:57.952Z,39.25
2022-09-28T08:06:28.349Z,36.40
2022-09-28T08:08:58.084Z,39.40
2022-09-28T08:11:37.706Z,39.83
2022-09-28T08:14:26.712Z,39.67
2022-09-28T08:17:04.702Z,34.03
2022-09-28T08:20:19.366Z,35.50
2022-09-28T08:22:48.665Z,36.83
2022-09-28T08:25:18.242Z,37.00
2022-09-28T08:27:48.123Z,36.17
2022-09-28T08:30:17.756Z,39.47
2022-09-28T08:32:53.850Z,38.67
2022-09-28T08:35:42.812Z,35.38
2022-09-28T08:38:38.985Z,34.75
2022-09-28T08:41:29.400Z,35.28
2022-09-28T08:44:11.749Z,37.35
2022-09-28T08:47:08.025Z,34.15
2022-09-28T08:50:04.934Z,33.83
2022-09-28T08:53:04.706Z,36.60
2022-09-28T08:55:51.909Z,33.55
2022-09-28T08:58:31.604Z,31.42
2022-09-28T09:01:04.348Z,34.28
2022-09-28T09:03:42.915Z,34.53
2022-09-28T09:06:56.821Z,35.08
2022-09-28T09:09:51.285Z,32.85
2022-09-28T09:12:41.732Z,33.88
2022-09-28T09:15:40.126Z,35.78
2022-09-28T09:18:44.962Z,35.25
2022-09-28T09:22:01.260Z,34.22
2022-09-28T09:24:43.744Z,43.05
2022-09-28T09:27:41.985Z,39.38
2022-09-28T09:30:24.092Z,31.05
2022-09-28T09:36:01.497Z,31.30
2022-09-28T09:39:03.375Z,32.80
2022-09-28T09:41:42.002Z,29.58
2022-09-28T09:44:36.371Z,30.10
2022-09-28T09:47:33.292Z,33.10
2022-09-28T09:50:26.408Z,28.52
2022-09-28T09:53:01.996Z,24.88
2022-09-28T09:55:34.126Z,25.98
2022-09-28T09:58:30.827Z,26.92
2022-09-28T10:01:15.593Z,29.88
2022-09-28T10:04:14.229Z,28.90
2022-09-28T10:06:45.059Z,29.83
2022-09-28T10:09:24.995Z,28.23
2022-09-28T10:11:55.426Z,29.40
2022-09-28T10:14:26.892Z,29.58
2022-09-28T10:17:13.428Z,30.70
2022-09-28T10:20:16.350Z,27.58
2022-09-28T10:23:04.136Z,28.15
2022-09-28T10:25:37.861Z,29.45
2022-09-28T10:28:09.079Z,28.02
2022-09-28T10:30:45.555Z,28.33
2022-09-28T10:33:35.689Z,27.50
2022-09-28T10:36:09.668Z,27.65
2022-09-28T10:38:39.258Z,26.92
2022-09-28T10:41:14.518Z,27.25
2022-09-28T10:44:07.870Z,25.63
2022-09-28T10:46:43.232Z,27.92
2022-09-28T10:49:20.104Z,28.05
2022-09-28T10:51:57.758Z,28.17
2022-09-28T10:54:33.600Z,30.27
2022-09-28T10:57:03.116Z,29.15
2022-09-28T10:59:54.840Z,28.23
2022-09-28T11:02:34.877Z,29.40
2022-09-28T11:05:31.052Z,27.52
2022-09-28T11:08:06.794Z,29.50
2022-09-28T11:10:44.318Z,27.95
2022-09-28T11:13:16.375Z,27.05
2022-09-28T11:15:55.621Z,32.55
2022-09-28T11:18:35.683Z,30.90
2022-09-28T11:21:15.768Z,30.63
2022-09-28T11:24:19.280Z,28.05
2022-09-28T11:26:54.188Z,31.52
2022-09-28T11:29:39.214Z,29.73
2022-09-28T11:32:32.464Z,31.20
2022-09-28T11:35:53.830Z,31.15
2022-09-28T11:38:36.870Z,30.15
2022-09-28T11:41:46.473Z,30.73
2022-09-28T11:44:21.499Z,32.20
2022-09-28T11:47:06.220Z,32.60
2022-09-28T11:49:48.452Z,36.35
2022-09-28T11:52:36.825Z,41.90
2022-09-28T11:55:35.033Z,35.13
2022-09-28T11:58:24.372Z,33.80
2022-09-28T12:01:10.562Z,33.45
2022-09-28T12:04:13.877Z,32.95
2022-09-28T12:07:00.331Z,32.50
2022-09-28T12:09:42.793Z,32.53
2022-09-28T12:12:38.331Z,31.67
2022-09-28T12:15:16.976Z,34.40
2022-09-28T12:18:15.938Z,33.90
2022-09-28T12:20:50.292Z,31.98
2022-09-28T12:23:36.949Z,33.55
2022-09-28T12:26:43.204Z,33.90
2022-09-28T12:29:16.828Z,32.13
2022-09-28T12:32:04.349Z,31.20
2022-09-28T12:34:33.751Z,30.35
2022-09-28T12:37:16.206Z,31.60
2022-09-28T12:39:58.408Z,30.83
2022-09-28T12:42:47.714Z,31.25
2022-09-28T12:45:53.150Z,30.50
2022-09-28T12:48:33.108Z,31.25
2022-09-28T12:51:13.500Z,31.67
2022-09-28T12:54:14.260Z,33.95
2022-09-28T12:57:05.926Z,30.88
2022-09-28T13:00:13.038Z,32.87
2022-09-28T13:03:08.345Z,32.17
2022-09-28T13:05:51.130Z,32.15
2022-09-28T13:08:32.517Z,29.23
2022-09-28T13:11:07.722Z,29.67
2022-09-28T13:13:57.480Z,31.60
2022-09-28T13:16:29.210Z,30.80
2022-09-28T13:19:17.069Z,29.98
2022-09-28T13:21:58.638Z,29.30
2022-09-28T13:24:36.621Z,30.85
2022-09-28T13:27:16.428Z,29.70
2022-09-28T13:29:46.615Z,31.23
2022-09-28T13:32:16.213Z,28.90
2022-09-28T13:34:50.823Z,29.92
2022-09-28T13:37:25.403Z,28.70
2022-09-28T13:40:06.800Z,30.20
2022-09-28T13:42:53.742Z,28.42
2022-09-28T13:45:23.227Z,29.58
2022-09-28T13:48:18.661Z,31.38
2022-09-28T13:51:18.587Z,31.83
2022-09-28T13:53:56.991Z,31.27
2022-09-28T13:56:29.576Z,31.08
2022-09-28T13:58:58.916Z,31.33
2022-09-28T14:01:37.939Z,32.42
2022-09-28T14:04:22.915Z,33.13
2022-09-28T14:07:11.041Z,31.15
2022-09-28T14:09:48.019Z,30.70
2022-09-28T14:12:45.606Z,32.13
2022-09-28T14:15:36.586Z,31.88
2022-09-28T14:18:22.094Z,32.92
2022-09-28T14:21:03.589Z,33.65
2022-09-28T14:24:10.220Z,33.87
2022-09-28T14:27:05.117Z,31.48
2022-09-28T14:29:38.273Z,33.60
2022-09-28T14:32:10.198Z,35.90
2022-09-28T14:34:49.486Z,35.47
2022-09-28T14:37:59.590Z,35.63
2022-09-28T14:41:13.841Z,35.60
2022-09-28T14:43:45.949Z,32.67
2022-09-28T14:46:15.201Z,33.80
2022-09-28T14:49:05.174Z,34.80
2022-09-28T14:51:36.573Z,38.30
2022-09-28T14:54:14.676Z,41.25
2022-09-28T14:56:51.167Z,41.92
2022-09-28T14:59:26.249Z,40.00
2022-09-28T15:02:15.337Z,41.28
2022-09-28T15:04:48.110Z,39.88
2022-09-28T15:07:51.675Z,38.75
2022-09-28T15:10:53.685Z,39.60
2022-09-28T15:13:27.409Z,40.05
2022-09-28T15:16:04.894Z,40.50
2022-09-28T15:19:02.575Z,41.83
2022-09-28T15:21:44.118Z,40.35
2022-09-28T15:24:34.678Z,42.17
2022-09-28T15:27:15.200Z,39.10
2022-09-28T15:30:01.682Z,40.90
2022-09-28T15:32:33.240Z,40.20
2022-09-28T15:35:27.528Z,40.60
2022-09-28T15:37:57.528Z,40.00
2022-09-28T15:40:36.199Z,39.17
2022-09-28T15:43:34.802Z,40.85
2022-09-28T15:46:21.444Z,38.05
2022-09-28T15:48:53.819Z,37.83
2022-09-28T15:54:05.518Z,36.13
2022-09-28T15:57:03.800Z,38.15
2022-09-28T15:59:41.881Z,37.63
2022-09-28T16:02:26.507Z,39.60
2022-09-28T16:05:04.170Z,38.15
2022-09-28T16:07:59.308Z,39.13
2022-09-28T16:10:34.979Z,39.42
2022-09-28T16:13:18.337Z,39.30
2022-09-28T16:15:48.357Z,39.28
2022-09-28T16:18:26.677Z,39.15
2022-09-28T16:21:00.467Z,39.38
2022-09-28T16:23:35.243Z,43.45
2022-09-28T16:26:14.510Z,41.50
2022-09-28T16:28:47.079Z,40.65
2022-09-28T16:31:17.647Z,40.83
2022-09-28T16:34:09.493Z,40.67
2022-09-28T16:36:48.252Z,40.22
2022-09-28T16:39:19.566Z,39.13
2022-09-28T16:42:01.152Z,40.88
2022-09-28T16:44:34.481Z,42.45
2022-09-28T16:47:05.264Z,40.80
2022-09-28T16:49:36.686Z,41.22
2022-09-28T16:52:13.548Z,40.92
2022-09-28T16:55:01.418Z,43.50
2022-09-28T16:57:30.982Z,41.83
2022-09-28T17:00:02.745Z,42.38
2022-09-28T17:02:46.230Z,41.58
2022-09-28T17:05:38.176Z,43.00
2022-09-28T17:08:08.976Z,41.28
2022-09-28T17:11:15.540Z,42.53
2022-09-28T17:13:49.466Z,41.83
2022-09-28T17:16:42.944Z,44.22
2022-09-28T17:19:28.716Z,40.92
2022-09-28T17:21:59.854Z,43.65
2022-09-28T17:24:43.072Z,42.17
2022-09-28T17:27:17.829Z,40.83
2022-09-28T17:29:49.774Z,43.65
2022-09-28T17:32:20.639Z,42.45
2022-09-28T17:35:00.718Z,44.05
2022-09-28T17:37:40.107Z,43.55
2022-09-28T17:40:21.698Z,44.38
2022-09-28T17:42:57.299Z,42.28
2022-09-28T17:45:32.639Z,44.67
2022-09-28T17:48:02.223Z,44.38
2022-09-28T17:50:35.157Z,44.97
2022-09-28T17:53:07.181Z,44.95
2022-09-28T17:55:38.855Z,44.05
2022-09-28T17:58:18.806Z,44.65
2022-09-28T18:00:50.162Z,45.47
2022-09-28T18:03:24.808Z,47.17
2022-09-28T18:06:05.517Z,44.03
2022-09-28T18:08:35.618Z,44.92
2022-09-28T18:11:04.708Z,44.97
2022-09-28T18:13:33.861Z,44.00
2022-09-28T18:16:03.371Z,44.22
2022-09-28T18:18:34.449Z,44.10
2022-09-28T18:21:03.927Z,42.83
2022-09-28T18:23:33.040Z,44.00
2022-09-28T18:26:02.737Z,45.03
2022-09-28T18:28:32.217Z,45.92
2022-09-28T18:31:07.969Z,45.35
2022-09-28T18:33:37.744Z,43.72
2022-09-28T18:36:08.558Z,45.70
2022-09-28T18:38:39.796Z,47.13
2022-09-28T18:41:11.335Z,45.83
2022-09-28T18:43:40.430Z,45.35
2022-09-28T18:46:12.484Z,46.35
2022-09-28T18:48:42.049Z,44.80
2022-09-28T18:51:13.556Z,45.78
2022-09-28T18:53:42.964Z,43.57
2022-09-28T18:56:22.425Z,44.60
2022-09-28T18:58:54.584Z,44.33
2022-09-28T19:01:31.705Z,44.78
2022-09-28T19:04:06.456Z,45.05
2022-09-28T19:06:39.826Z,44.67
2022-09-28T19:09:09.863Z,45.38
2022-09-28T19:11:39.390Z,44.08
2022-09-28T19:14:08.395Z,45.38
2022-09-28T19:16:37.450Z,47.22
2022-09-28T19:19:07.702Z,45.25
2022-09-28T19:21:37.054Z,46.20
2022-09-28T19:24:06.511Z,44.58
2022-09-28T19:26:36.171Z,46.03
2022-09-28T19:29:05.399Z,45.53
2022-09-28T19:31:34.854Z,45.60
2022-09-28T19:34:04.475Z,46.65
2022-09-28T19:36:34.048Z,46.25
2022-09-28T19:39:04.634Z,44.95
2022-09-28T19:41:52.205Z,46.75
2022-09-28T19:44:26.208Z,46.33
2022-09-28T19:47:09.736Z,47.92
2022-09-28T19:49:41.297Z,46.10
2022-09-28T19:52:17.273Z,46.63
2022-09-28T19:54:58.294Z,46.78
2022-09-28T19:57:29.533Z,48.40
2022-09-28T20:00:02.688Z,47.30
2022-09-28T20:02:36.439Z,47.88
2022-09-28T20:05:06.162Z,46.22
2022-09-28T20:07:37.115Z,47.45
2022-09-28T20:10:06.678Z,48.58
2022-09-28T20:12:36.123Z,48.50
2022-09-28T20:15:06.518Z,48.13
2022-09-28T20:17:37.963Z,50.20
2022-09-28T20:20:07.380Z,48.75
2022-09-28T20:22:38.047Z,47.03
2022-09-28T20:25:07.788Z,47.65
2022-09-28T20:27:37.009Z,46.25
2022-09-28T20:30:07.570Z,51.17
2022-09-28T20:32:36.895Z,50.58
2022-09-28T20:35:06.923Z,52.10
2022-09-28T20:37:36.232Z,50.33
2022-09-28T20:40:05.567Z,52.10
2022-09-28T20:42:34.611Z,47.40
2022-09-28T20:45:03.952Z,48.78
2022-09-28T20:47:33.042Z,48.05
2022-09-28T20:50:02.200Z,51.30
2022-09-28T20:52:31.333Z,51.28
2022-09-28T20:55:00.497Z,51.42
2022-09-28T20:57:30.048Z,54.67
2022-09-28T20:59:59.448Z,53.80
2022-09-28T21:02:29.195Z,50.92
2022-09-28T21:04:58.526Z,52.60
2022-09-28T21:07:27.348Z,53.72
2022-09-28T21:09:56.806Z,53.03
2022-09-28T21:12:32.385Z,53.90
2022-09-28T21:15:05.772Z,56.28
2022-09-28T21:17:35.304Z,53.13
2022-09-28T21:20:05.235Z,51.97
2022-09-28T21:22:34.319Z,54.20
2022-09-28T21:25:03.509Z,56.35
2022-09-28T21:27:32.647Z,58.08
2022-09-28T21:30:02.532Z,58.13
2022-09-28T21:32:31.603Z,58.83
2022-09-28T21:35:00.991Z,57.88
2022-09-28T21:37:30.339Z,59.20
2022-09-28T21:40:00.677Z,59.10
2022-09-28T21:42:29.850Z,58.22
2022-09-28T21:44:59.621Z,57.45
2022-09-28T21:47:28.569Z,59.95
2022-09-28T21:49:57.649Z,61.55
2022-09-28T21:52:26.836Z,61.50
2022-09-28T21:54:56.103Z,56.28
2022-09-28T21:57:25.048Z,58.25
2022-09-28T21:59:54.287Z,61.97
2022-09-28T22:02:24.224Z,61.95
2022-09-28T22:04:53.140Z,59.58
2022-09-28T22:07:22.514Z,60.42
2022-09-28T22:09:53.501Z,60.92
2022-09-28T22:12:23.065Z,61.92
2022-09-28T22:14:52.080Z,62.45
2022-09-28T22:17:21.363Z,67.32
2022-09-28T22:19:51.235Z,64.00
2022-09-28T22:22:20.444Z,65.22
2022-09-28T22:24:49.405Z,63.25
2022-09-28T22:27:18.783Z,60.60
2022-09-28T22:29:47.943Z,62.35
2022-09-28T22:32:17.036Z,64.55
2022-09-28T22:34:46.111Z,62.30
2022-09-28T22:37:15.492Z,61.50
2022-09-28T22:39:44.415Z,62.60
2022-09-28T22:42:13.438Z,59.88
2022-09-28T22:44:42.766Z,61.35
2022-09-28T22:47:11.647Z,59.05
2022-09-28T22:49:40.845Z,62.13
2022-09-28T22:52:09.908Z,62.13
2022-09-28T22:54:41.434Z,64.65
2022-09-28T22:57:10.651Z,58.90
2022-09-28T22:59:39.758Z,61.28
2022-09-28T23:02:09.089Z,62.75
2022-09-28T23:04:38.098Z,64.07
2022-09-28T23:07:07.672Z,64.43
2022-09-28T23:09:36.711Z,65.57
2022-09-28T23:12:05.872Z,65.45
2022-09-28T23:14:35.046Z,65.40
2022-09-28T23:17:04.264Z,61.58
2022-09-28T23:19:33.662Z,63.72
2022-09-28T23:22:02.720Z,67.43
2022-09-28T23:24:31.904Z,65.35
2022-09-28T23:27:01.057Z,67.75
2022-09-28T23:29:30.235Z,67.93
2022-09-28T23:32:02.679Z,69.47
2022-09-28T23:34:32.140Z,69.18
2022-09-28T23:37:05.280Z,68.72
2022-09-28T23:39:34.598Z,69.28
2022-09-28T23:42:04.106Z,67.95
2022-09-28T23:44:33.729Z,70.70
2022-09-28T23:47:03.112Z,65.28
2022-09-28T23:49:33.281Z,70.07
2022-09-28T23:52:02.658Z,68.32
2022-09-28T23:54:31.701Z,67.10
2022-09-28T23:57:01.717Z,70.47
2022-09-28T23:59:30.860Z,70.80
